Time;durP1;ratioP1;P1;durP2;ratioP2;P2;SDS_P1;SDS_P2;PMS_P1;PMS_P2;Temp;Humidity;BMP_temperature;BMP_pressure;BME280_temperature;BME280_humidity;BME280_pressure;Samples;Min_cycle;Max_cycle;Signal;HPM_P1;HPM_P2
2021/06/25 00:01:30;;;;;;;;;;;17.40;79.80;;;;;;4994004;28;19928;-70
2021/06/25 00:03:56;;;;;;;;;;;17.30;79.00;;;;;;4993978;28;19936;-71
2021/06/25 00:06:22;;;;;;;;;;;17.30;81.60;;;;;;4993970;28;20014;-70
2021/06/25 00:08:47;;;;;;;;;;;17.30;80.40;;;;;;4995215;28;19950;-71
2021/06/25 00:11:13;;;;;;;;;;;17.30;79.80;;;;;;4997828;28;20324;-71
2021/06/25 00:13:38;;;;;;;;;;;17.30;79.60;;;;;;4998068;28;19924;-71
2021/06/25 00:16:04;;;;;;;;;;;17.20;81.70;;;;;;4997766;28;19929;-72
2021/06/25 00:18:29;;;;;;;;;;;17.20;80.10;;;;;;4996793;28;19925;-71
2021/06/25 00:20:55;;;;;;;;;;;17.20;80.00;;;;;;4997664;28;19965;-71
2021/06/25 00:23:20;;;;;;;;;;;17.30;79.20;;;;;;4997677;28;19966;-71
2021/06/25 00:25:46;;;;;;;;;;;17.20;79.40;;;;;;4997596;28;20302;-70
2021/06/25 00:28:11;;;;;;;;;;;17.30;79.00;;;;;;4997503;28;19924;-70
2021/06/25 00:30:37;;;;;;;;;;;17.30;79.20;;;;;;4996253;28;19951;-71
2021/06/25 00:33:03;;;;;;;;;;;17.30;80.90;;;;;;4997452;28;19923;-72
2021/06/25 00:35:28;;;;;;;;;;;17.10;81.00;;;;;;4997429;28;19924;-71
2021/06/25 00:37:54;;;;;;;;;;;16.90;85.50;;;;;;4996429;28;20276;-71
2021/06/25 00:40:19;;;;;;;;;;;16.70;82.00;;;;;;4997318;28;19921;-71
2021/06/25 00:42:45;;;;;;;;;;;16.70;82.40;;;;;;4997490;28;19924;-70
2021/06/25 00:45:14;;;;;;;;;;;16.60;82.90;;;;;;4996085;28;19969;-71
2021/06/25 00:47:41;;;;;;;;;;;16.60;83.10;;;;;;4995998;28;19965;-71
2021/06/25 00:50:07;;;;;;;;;;;16.60;84.90;;;;;;4997282;28;19942;-71
2021/06/25 00:52:32;;;;;;;;;;;16.60;82.50;;;;;;4996040;28;20263;-71
2021/06/25 00:54:58;;;;;;;;;;;16.60;82.20;;;;;;4995744;28;19936;-71
2021/06/25 00:57:23;;;;;;;;;;;16.60;81.80;;;;;;4996958;28;19941;-71
2021/06/25 00:59:49;;;;;;;;;;;16.60;82.30;;;;;;4995955;28;19944;-71
2021/06/25 01:02:14;;;;;;;;;;;16.70;82.10;;;;;;4996896;28;19971;-70
2021/06/25 01:04:40;;;;;;;;;;;16.70;82.40;;;;;;4979391;28;19933;-71
2021/06/25 01:07:05;;;;;;;;;;;16.70;82.40;;;;;;4997105;28;19931;-71
2021/06/25 01:09:31;;;;;;;;;;;16.70;82.80;;;;;;4996674;28;19982;-71
2021/06/25 01:11:57;;;;;;;;;;;16.70;82.10;;;;;;4996842;28;19960;-70
2021/06/25 01:14:22;;;;;;;;;;;16.70;81.80;;;;;;4997060;28;19923;-71
2021/06/25 01:16:48;;;;;;;;;;;16.70;82.20;;;;;;4995601;28;19928;-70
2021/06/25 01:19:14;;;;;;;;;;;16.70;82.40;;;;;;4996179;28;19921;-71
2021/06/25 01:21:40;;;;;;;;;;;16.70;82.20;;;;;;4995504;28;20415;-70
2021/06/25 01:24:06;;;;;;;;;;;16.70;82.20;;;;;;4996423;28;19956;-71
2021/06/25 01:26:31;;;;;;;;;;;16.80;82.30;;;;;;4996512;28;19926;-70
2021/06/25 01:28:57;;;;;;;;;;;16.70;81.80;;;;;;4996486;28;20299;-71
2021/06/25 01:31:22;;;;;;;;;;;16.70;82.50;;;;;;4996518;28;19927;-70
2021/06/25 01:33:48;;;;;;;;;;;16.80;81.70;;;;;;4996736;28;19930;-70
2021/06/25 01:36:13;;;;;;;;;;;16.70;82.00;;;;;;4996408;28;20443;-71
2021/06/25 01:38:40;;;;;;;;;;;16.80;82.70;;;;;;4996355;28;20293;-71
2021/06/25 01:41:06;;;;;;;;;;;16.80;82.60;;;;;;4996325;28;19923;-71
2021/06/25 01:43:31;;;;;;;;;;;16.80;82.10;;;;;;4996247;28;19952;-71
2021/06/25 01:45:57;;;;;;;;;;;16.70;82.40;;;;;;4996223;28;19929;-70
2021/06/25 01:48:22;;;;;;;;;;;16.70;83.50;;;;;;4996459;28;19924;-71
2021/06/25 01:50:48;;;;;;;;;;;16.70;82.40;;;;;;4996090;28;19971;-70
2021/06/25 01:53:15;;;;;;;;;;;16.80;82.50;;;;;;4994854;28;20416;-70
2021/06/25 01:55:41;;;;;;;;;;;16.80;83.10;;;;;;4995982;28;19940;-70
2021/06/25 01:58:12;;;;;;;;;;;16.80;82.50;;;;;;4996041;28;20009;-70
2021/06/25 02:00:38;;;;;;;;;;;16.80;82.50;;;;;;4996005;28;20018;-70
2021/06/25 02:03:04;;;;;;;;;;;16.80;82.30;;;;;;4995362;28;20395;-71
2021/06/25 02:05:29;;;;;;;;;;;16.90;82.90;;;;;;4996122;28;19960;-71
2021/06/25 02:07:55;;;;;;;;;;;16.90;82.40;;;;;;4996368;28;19935;-71
2021/06/25 02:10:20;;;;;;;;;;;16.80;82.80;;;;;;4994507;28;20322;-71
2021/06/25 02:12:46;;;;;;;;;;;16.80;83.70;;;;;;4995710;28;19927;-71
2021/06/25 02:15:11;;;;;;;;;;;16.80;83.20;;;;;;4995916;28;19931;-70
2021/06/25 02:17:37;;;;;;;;;;;16.70;83.30;;;;;;4995863;28;19926;-71
2021/06/25 02:20:03;;;;;;;;;;;16.70;82.60;;;;;;4994418;28;19930;-70
2021/06/25 02:22:29;;;;;;;;;;;16.80;84.50;;;;;;4995389;28;19987;-71
2021/06/25 02:24:54;;;;;;;;;;;16.70;85.20;;;;;;4995127;28;19966;-71
2021/06/25 02:27:20;;;;;;;;;;;16.60;84.00;;;;;;4994834;28;19925;-71
2021/06/25 02:29:45;;;;;;;;;;;16.60;84.10;;;;;;4995346;28;19994;-71
2021/06/25 02:32:11;;;;;;;;;;;16.60;84.10;;;;;;4994588;28;19923;-71
2021/06/25 02:34:36;;;;;;;;;;;16.70;83.70;;;;;;4995306;28;20348;-70
2021/06/25 02:37:02;;;;;;;;;;;16.70;83.20;;;;;;4995249;28;19920;-71
2021/06/25 02:39:27;;;;;;;;;;;16.80;83.60;;;;;;4994009;28;19950;-71
2021/06/25 02:41:53;;;;;;;;;;;16.80;83.80;;;;;;4995195;28;19924;-71
2021/06/25 02:44:18;;;;;;;;;;;16.80;83.30;;;;;;4995150;28;19926;-70
2021/06/25 02:46:44;;;;;;;;;;;16.80;83.50;;;;;;4995076;28;20350;-70
2021/06/25 02:49:09;;;;;;;;;;;16.90;82.80;;;;;;4995260;28;19949;-71
2021/06/25 02:51:35;;;;;;;;;;;16.90;83.60;;;;;;4995250;28;19929;-70
2021/06/25 02:54:00;;;;;;;;;;;16.80;83.10;;;;;;4995007;28;19924;-71
2021/06/25 02:56:26;;;;;;;;;;;16.80;83.20;;;;;;4995030;28;20031;-71
2021/06/25 02:58:51;;;;;;;;;;;16.70;83.60;;;;;;4994851;28;20380;-70
2021/06/25 03:01:17;;;;;;;;;;;16.70;83.60;;;;;;4994232;28;20385;-72
2021/06/25 03:03:42;;;;;;;;;;;16.70;85.00;;;;;;4993640;28;19924;-71
2021/06/25 03:06:08;;;;;;;;;;;16.70;86.00;;;;;;4994765;28;19962;-70
2021/06/25 03:08:33;;;;;;;;;;;16.70;85.00;;;;;;4994018;28;19935;-71
2021/06/25 03:11:00;;;;;;;;;;;16.70;85.30;;;;;;4994691;28;19932;-71
2021/06/25 03:13:26;;;;;;;;;;;16.70;87.30;;;;;;4993385;28;19927;-70
2021/06/25 03:15:51;;;;;;;;;;;16.70;85.50;;;;;;4993483;28;19931;-70
2021/06/25 03:18:17;;;;;;;;;;;16.80;84.90;;;;;;4995161;28;19926;-70
2021/06/25 03:20:42;;;;;;;;;;;16.80;84.20;;;;;;4994567;28;19931;-70
2021/06/25 03:23:08;;;;;;;;;;;16.90;84.40;;;;;;4994595;28;19968;-70
2021/06/25 03:25:33;;;;;;;;;;;16.90;84.10;;;;;;4994844;28;19929;-71
2021/06/25 03:27:59;;;;;;;;;;;17.00;84.00;;;;;;4993301;28;19933;-70
2021/06/25 03:30:24;;;;;;;;;;;17.00;84.30;;;;;;4993248;28;19981;-71
2021/06/25 03:32:50;;;;;;;;;;;17.00;84.00;;;;;;4993278;28;19933;-70
2021/06/25 03:35:15;;;;;;;;;;;17.10;85.00;;;;;;4994973;28;19930;-71
2021/06/25 03:37:41;;;;;;;;;;;17.00;86.40;;;;;;4994362;28;20326;-70
2021/06/25 03:40:07;;;;;;;;;;;17.00;84.80;;;;;;4993773;28;20021;-70
2021/06/25 03:42:33;;;;;;;;;;;17.00;86.20;;;;;;4994191;28;20298;-71
2021/06/25 03:44:58;;;;;;;;;;;16.90;86.30;;;;;;4994575;28;20035;-70
2021/06/25 03:47:24;;;;;;;;;;;16.90;86.10;;;;;;4994581;28;19949;-70
2021/06/25 03:49:49;;;;;;;;;;;16.90;88.50;;;;;;4994218;28;19946;-71
2021/06/25 03:52:15;;;;;;;;;;;16.80;88.10;;;;;;4993375;28;20014;-71
2021/06/25 03:54:42;;;;;;;;;;;16.70;88.60;;;;;;4992930;28;20087;-70
2021/06/25 03:57:07;;;;;;;;;;;16.70;87.10;;;;;;4993273;28;20433;-70
2021/06/25 03:59:33;;;;;;;;;;;16.70;89.30;;;;;;4994168;28;19926;-70
2021/06/25 04:01:58;;;;;;;;;;;16.70;88.10;;;;;;4994148;28;19928;-70
2021/06/25 04:04:24;;;;;;;;;;;16.70;87.00;;;;;;4992963;28;19968;-71
2021/06/25 04:06:49;;;;;;;;;;;16.80;88.30;;;;;;4994422;28;19924;-70
2021/06/25 04:09:15;;;;;;;;;;;16.70;89.60;;;;;;4994030;28;19946;-71
2021/06/25 04:11:40;;;;;;;;;;;16.70;87.30;;;;;;4993479;28;20302;-71
2021/06/25 04:14:06;;;;;;;;;;;16.80;88.50;;;;;;4994047;28;19923;-72
2021/06/25 04:16:31;;;;;;;;;;;16.70;87.40;;;;;;4994290;28;19926;-71
2021/06/25 04:18:57;;;;;;;;;;;16.80;88.00;;;;;;4994030;28;19978;-71
2021/06/25 04:21:23;;;;;;;;;;;16.80;88.30;;;;;;4992844;28;20327;-70
2021/06/25 04:23:49;;;;;;;;;;;16.80;86.60;;;;;;4993784;28;19967;-70
2021/06/25 04:26:14;;;;;;;;;;;16.90;87.20;;;;;;4992819;28;19930;-71
2021/06/25 04:28:40;;;;;;;;;;;16.90;87.60;;;;;;4994129;28;19968;-72
2021/06/25 04:31:06;;;;;;;;;;;16.80;89.80;;;;;;4992757;28;20454;-70
2021/06/25 04:33:31;;;;;;;;;;;16.80;89.50;;;;;;4994146;28;20008;-70
2021/06/25 04:35:57;;;;;;;;;;;16.80;87.50;;;;;;4993812;28;19923;-71
2021/06/25 04:38:22;;;;;;;;;;;16.90;87.20;;;;;;4992662;28;19929;-70
2021/06/25 04:40:48;;;;;;;;;;;16.90;88.50;;;;;;4993784;28;19931;-71
2021/06/25 04:43:15;;;;;;;;;;;16.90;87.10;;;;;;4992607;28;19989;-70
2021/06/25 04:45:40;;;;;;;;;;;16.90;88.10;;;;;;4992626;28;19922;-71
2021/06/25 04:48:07;;;;;;;;;;;16.90;88.60;;;;;;4976304;28;20038;-70
2021/06/25 04:50:32;;;;;;;;;;;16.90;88.90;;;;;;4976248;28;19959;-71
2021/06/25 04:52:58;;;;;;;;;;;16.90;89.50;;;;;;4993730;28;19928;-70
2021/06/25 04:55:23;;;;;;;;;;;16.80;88.40;;;;;;4995271;28;19927;-70
2021/06/25 04:57:52;;;;;;;;;;;16.90;88.40;;;;;;4995871;28;20385;-70
2021/06/25 05:00:18;;;;;;;;;;;16.90;89.60;;;;;;4996485;28;19945;-71
2021/06/25 05:02:43;;;;;;;;;;;16.90;89.20;;;;;;4995929;28;19924;-70
2021/06/25 05:05:09;;;;;;;;;;;16.80;88.70;;;;;;4995885;28;19986;-71
2021/06/25 05:07:35;;;;;;;;;;;16.90;88.70;;;;;;4997518;28;19923;-70
2021/06/25 05:10:00;;;;;;;;;;;16.90;88.70;;;;;;4996868;28;20315;-71
2021/06/25 05:12:26;;;;;;;;;;;16.90;89.60;;;;;;4996964;28;19985;-71
2021/06/25 05:14:52;;;;;;;;;;;16.90;89.30;;;;;;4997149;28;20005;-70
2021/06/25 05:17:17;;;;;;;;;;;16.90;88.80;;;;;;4996844;28;20077;-71
2021/06/25 05:19:43;;;;;;;;;;;16.90;89.20;;;;;;4997045;28;20394;-71
2021/06/25 05:22:08;;;;;;;;;;;17.00;88.40;;;;;;4996736;28;20008;-71
2021/06/25 05:24:34;;;;;;;;;;;17.00;88.80;;;;;;4996348;28;20014;-70
2021/06/25 05:26:59;;;;;;;;;;;17.00;89.40;;;;;;4996593;28;19981;-71
2021/06/25 05:29:25;;;;;;;;;;;17.00;88.90;;;;;;4995372;28;19943;-71
2021/06/25 05:31:50;;;;;;;;;;;17.00;89.20;;;;;;4996774;28;19927;-70
2021/06/25 05:34:16;;;;;;;;;;;17.00;88.50;;;;;;4996507;28;19960;-70
2021/06/25 05:36:41;;;;;;;;;;;17.10;89.70;;;;;;4995845;28;20006;-70
2021/06/25 05:39:07;;;;;;;;;;;17.10;88.30;;;;;;4996425;28;19929;-71
2021/06/25 05:41:32;;;;;;;;;;;17.10;90.40;;;;;;4996639;28;20007;-71
2021/06/25 05:43:58;;;;;;;;;;;17.10;90.10;;;;;;4996321;28;20395;-71
2021/06/25 05:46:23;;;;;;;;;;;17.00;90.10;;;;;;4996266;28;19934;-71
2021/06/25 05:48:49;;;;;;;;;;;17.00;89.40;;;;;;4995293;28;19923;-70
2021/06/25 05:51:16;;;;;;;;;;;17.10;91.10;;;;;;4996191;28;19954;-71
2021/06/25 05:53:41;;;;;;;;;;;17.10;90.20;;;;;;4978451;28;19927;-71
2021/06/25 05:56:07;;;;;;;;;;;17.10;91.40;;;;;;4996008;28;20006;-70
2021/06/25 05:58:33;;;;;;;;;;;17.10;90.20;;;;;;4996341;28;19934;-71
2021/06/25 06:00:58;;;;;;;;;;;17.10;90.90;;;;;;4995980;28;19927;-70
2021/06/25 06:03:24;;;;;;;;;;;17.10;90.10;;;;;;4995367;28;20362;-71
2021/06/25 06:05:49;;;;;;;;;;;17.20;90.30;;;;;;4995632;28;19967;-70
2021/06/25 06:08:15;;;;;;;;;;;17.20;89.30;;;;;;4994570;28;20018;-70
2021/06/25 06:10:40;;;;;;;;;;;17.20;90.30;;;;;;4995988;28;19949;-71
2021/06/25 06:13:06;;;;;;;;;;;17.10;90.20;;;;;;4995771;28;19950;-70
2021/06/25 06:15:32;;;;;;;;;;;17.10;90.20;;;;;;4994550;28;19928;-71
2021/06/25 06:17:59;;;;;;;;;;;17.20;89.80;;;;;;4995934;28;20331;-70
2021/06/25 06:20:26;;;;;;;;;;;17.10;90.10;;;;;;4994731;28;19925;-70
2021/06/25 06:31:40;;;;;;;;;;;17.10;90.80;;;;;;4995757;28;19937;-70
2021/06/25 06:34:06;;;;;;;;;;;17.10;90.80;;;;;;4995925;28;19924;-71
2021/06/25 06:36:42;;;;;;;;;;;17.20;90.60;;;;;;4995896;28;20013;-70
2021/06/25 06:39:08;;;;;;;;;;;17.20;90.20;;;;;;4978989;28;19924;-70
2021/06/25 06:41:33;;;;;;;;;;;17.30;90.40;;;;;;4995468;28;19930;-70
2021/06/25 06:43:59;;;;;;;;;;;17.20;90.50;;;;;;4993977;28;19954;-70
2021/06/25 06:46:24;;;;;;;;;;;17.30;91.40;;;;;;4995035;28;19955;-70
2021/06/25 06:48:50;;;;;;;;;;;17.30;90.30;;;;;;4994993;28;19923;-70
2021/06/25 06:51:15;;;;;;;;;;;17.30;90.60;;;;;;4993780;28;19926;-70
2021/06/25 06:53:43;;;;;;;;;;;17.40;90.70;;;;;;4995326;28;19924;-70
2021/06/25 06:56:11;;;;;;;;;;;17.40;90.70;;;;;;4994898;28;20433;-70
2021/06/25 06:58:38;;;;;;;;;;;17.40;89.50;;;;;;4994081;28;19987;-70
2021/06/25 07:01:03;;;;;;;;;;;17.50;90.30;;;;;;4994890;28;19957;-70
2021/06/25 07:03:29;;;;;;;;;;;17.50;89.60;;;;;;4994862;28;19931;-70
2021/06/25 07:05:54;;;;;;;;;;;17.50;90.30;;;;;;4995124;28;19932;-70
2021/06/25 07:08:19;;;;;;;;;;;17.50;90.20;;;;;;4994795;28;19950;-70
2021/06/25 07:10:45;;;;;;;;;;;17.50;90.20;;;;;;4994727;28;20441;-70
2021/06/25 07:13:11;;;;;;;;;;;17.50;89.30;;;;;;4995022;28;19927;-70
2021/06/25 07:15:37;;;;;;;;;;;17.50;89.40;;;;;;4994694;28;19973;-70
2021/06/25 07:18:02;;;;;;;;;;;17.40;89.90;;;;;;4992883;28;20335;-70
2021/06/25 07:20:28;;;;;;;;;;;17.50;90.00;;;;;;4995162;28;20012;-70
2021/06/25 07:22:53;;;;;;;;;;;17.50;90.10;;;;;;4994396;28;19923;-70
2021/06/25 07:25:19;;;;;;;;;;;17.60;90.00;;;;;;4993940;28;20015;-69
2021/06/25 07:27:44;;;;;;;;;;;17.60;90.20;;;;;;4993365;28;19983;-70
2021/06/25 07:30:10;;;;;;;;;;;17.60;89.90;;;;;;4993135;28;19972;-70
2021/06/25 07:32:36;;;;;;;;;;;17.70;90.10;;;;;;4993581;28;19922;-70
2021/06/25 07:35:02;;;;;;;;;;;17.80;89.60;;;;;;4994420;28;19926;-70
2021/06/25 07:37:27;;;;;;;;;;;17.80;90.00;;;;;;4993795;28;20312;-70
2021/06/25 07:39:53;;;;;;;;;;;18.00;90.20;;;;;;4994636;28;19923;-70
2021/06/25 07:42:19;;;;;;;;;;;18.10;89.40;;;;;;4994635;28;19975;-70
2021/06/25 07:44:44;;;;;;;;;;;18.20;89.20;;;;;;4994304;28;20109;-70
2021/06/25 07:47:10;;;;;;;;;;;18.30;89.20;;;;;;4994574;28;19924;-70
2021/06/25 07:49:35;;;;;;;;;;;18.30;89.10;;;;;;4994125;28;19945;-70
2021/06/25 07:52:01;;;;;;;;;;;18.30;90.20;;;;;;4994226;28;19924;-70
2021/06/25 07:54:26;;;;;;;;;;;18.30;89.70;;;;;;4994540;28;19953;-70
2021/06/25 07:56:52;;;;;;;;;;;18.30;89.30;;;;;;4994139;28;19938;-70
2021/06/25 07:59:17;;;;;;;;;;;18.30;88.50;;;;;;4994494;28;19923;-70
2021/06/25 08:01:43;;;;;;;;;;;18.40;88.70;;;;;;4992997;28;19925;-69
2021/06/25 08:04:08;;;;;;;;;;;18.50;89.80;;;;;;4994468;28;19928;-71
2021/06/25 08:06:34;;;;;;;;;;;18.50;88.10;;;;;;4994141;28;19924;-70
2021/06/25 08:09:03;;;;;;;;;;;18.50;88.10;;;;;;4994272;28;19923;-71
2021/06/25 08:11:29;;;;;;;;;;;18.60;87.30;;;;;;4994084;28;19939;-70
2021/06/25 08:13:54;;;;;;;;;;;18.60;86.50;;;;;;4992772;28;19930;-71
2021/06/25 08:16:20;;;;;;;;;;;18.60;86.70;;;;;;4994020;28;20017;-75
2021/06/25 08:18:45;;;;;;;;;;;18.50;86.40;;;;;;4993122;28;20301;-70
2021/06/25 08:21:11;;;;;;;;;;;18.40;86.70;;;;;;4993962;28;19928;-71
2021/06/25 08:23:37;;;;;;;;;;;18.50;86.80;;;;;;4993962;28;19982;-71
2021/06/25 08:26:02;;;;;;;;;;;18.40;86.80;;;;;;4992700;28;19926;-70
2021/06/25 08:28:28;;;;;;;;;;;18.50;86.80;;;;;;4994265;28;19927;-71
2021/06/25 08:30:53;;;;;;;;;;;18.60;86.60;;;;;;4997575;28;20036;-69
2021/06/25 08:33:19;;;;;;;;;;;18.60;86.00;;;;;;4997642;28;19974;-69
2021/06/25 08:35:44;;;;;;;;;;;18.70;86.10;;;;;;4998101;28;19934;-69
2021/06/25 08:38:10;;;;;;;;;;;18.60;85.80;;;;;;4997565;28;20029;-70
2021/06/25 08:40:35;;;;;;;;;;;18.60;85.70;;;;;;4997480;28;19966;-70
2021/06/25 08:43:01;;;;;;;;;;;18.60;85.60;;;;;;4996595;28;19933;-70
2021/06/25 08:45:28;;;;;;;;;;;18.60;85.80;;;;;;4997395;28;19991;-70
2021/06/25 08:47:54;;;;;;;;;;;18.60;85.90;;;;;;4997632;28;20419;-70
2021/06/25 08:50:22;;;;;;;;;;;18.50;86.00;;;;;;4997251;28;19940;-70
2021/06/25 08:52:49;;;;;;;;;;;18.50;86.00;;;;;;4996127;28;19930;-70
2021/06/25 08:55:15;;;;;;;;;;;18.60;86.00;;;;;;4997290;28;19925;-70
2021/06/25 08:57:40;;;;;;;;;;;18.60;86.00;;;;;;4997673;28;20302;-69
2021/06/25 09:00:07;;;;;;;;;;;18.70;86.40;;;;;;4995987;28;19928;-69
2021/06/25 09:02:33;;;;;;;;;;;18.70;85.30;;;;;;4995906;28;20299;-70
2021/06/25 09:04:58;;;;;;;;;;;18.80;84.40;;;;;;4995872;28;20009;-70
2021/06/25 09:07:43;;;;;;;;;;;18.90;84.40;;;;;;4995818;28;20016;-70
2021/06/25 09:10:09;;;;;;;;;;;19.00;84.60;;;;;;4995711;28;20059;-70
2021/06/25 09:12:34;;;;;;;;;;;19.10;83.20;;;;;;4995802;28;19923;-70
2021/06/25 09:15:17;;;;;;;;;;;19.10;80.60;;;;;;4996877;28;19932;-70
2021/06/25 09:18:15;;;;;;;;;;;19.10;83.00;;;;;;4996059;28;20283;-70
2021/06/25 09:20:44;;;;;;;;;;;19.10;82.10;;;;;;4985173;28;19989;-70
2021/06/25 09:23:11;;;;;;;;;;;19.20;82.00;;;;;;4996572;28;20456;-70
2021/06/25 09:25:49;;;;;;;;;;;19.20;80.20;;;;;;4997257;28;19961;-70
2021/06/25 09:28:18;;;;;;;;;;;19.10;80.60;;;;;;4996604;28;20397;-70
2021/06/25 09:30:44;;;;;;;;;;;19.10;81.30;;;;;;4997051;28;19943;-70
2021/06/25 09:33:10;;;;;;;;;;;19.20;81.70;;;;;;4995408;28;19975;-70
2021/06/25 09:35:37;;;;;;;;;;;19.20;81.00;;;;;;4996776;28;20396;-70
2021/06/25 09:38:03;;;;;;;;;;;19.20;81.90;;;;;;4995300;28;19948;-70
2021/06/25 09:40:33;;;;;;;;;;;19.30;81.10;;;;;;4995767;28;19928;-70
2021/06/25 09:43:11;;;;;;;;;;;19.40;80.50;;;;;;4995373;28;19931;-71
2021/06/25 09:45:46;;;;;;;;;;;19.50;81.10;;;;;;4978817;28;19926;-70
2021/06/25 09:48:11;;;;;;;;;;;19.60;79.40;;;;;;4996558;28;19924;-70
2021/06/25 09:50:37;;;;;;;;;;;19.80;80.30;;;;;;4995236;28;19944;-70
2021/06/25 09:53:04;;;;;;;;;;;19.80;79.50;;;;;;4996176;28;19930;-70
2021/06/25 09:55:30;;;;;;;;;;;20.10;79.70;;;;;;4994825;28;20292;-70
2021/06/25 10:03:31;;;;;;;;;;;20.70;77.60;;;;;;4995738;28;19934;-70
2021/06/25 10:06:09;;;;;;;;;;;20.60;78.30;;;;;;4995063;28;19924;-70
2021/06/25 10:08:35;;;;;;;;;;;20.40;75.20;;;;;;4995930;28;19928;-70
2021/06/25 10:11:02;;;;;;;;;;;20.30;79.00;;;;;;4995773;28;19998;-70
2021/06/25 10:13:28;;;;;;;;;;;20.20;78.50;;;;;;4996046;28;19974;-70
2021/06/25 10:15:54;;;;;;;;;;;20.20;78.30;;;;;;4994570;28;19932;-70
2021/06/25 10:18:19;;;;;;;;;;;20.20;75.70;;;;;;4994544;28;20372;-70
2021/06/25 10:20:45;;;;;;;;;;;20.20;78.10;;;;;;4994445;28;19978;-70
2021/06/25 10:23:10;;;;;;;;;;;20.20;77.50;;;;;;4994257;28;19955;-70
2021/06/25 10:25:36;;;;;;;;;;;20.10;77.90;;;;;;4994994;28;20384;-70
2021/06/25 10:28:01;;;;;;;;;;;20.10;77.60;;;;;;4994621;28;19923;-71
2021/06/25 10:30:27;;;;;;;;;;;20.10;79.30;;;;;;4994221;28;19988;-70
2021/06/25 10:32:53;;;;;;;;;;;20.10;80.30;;;;;;4994525;28;19924;-70
2021/06/25 10:35:18;;;;;;;;;;;20.10;80.30;;;;;;4995359;28;19974;-70
2021/06/25 10:37:44;;;;;;;;;;;20.20;80.10;;;;;;4994681;28;20403;-70
2021/06/25 10:40:23;;;;;;;;;;;20.20;80.30;;;;;;4994377;28;19923;-70
2021/06/25 10:42:49;;;;;;;;;;;20.30;80.30;;;;;;4994368;28;20023;-70
2021/06/25 10:45:15;;;;;;;;;;;20.30;81.80;;;;;;4994010;28;19965;-70
2021/06/25 10:48:00;;;;;;;;;;;20.30;81.30;;;;;;4995443;28;19930;-71
2021/06/25 10:50:26;;;;;;;;;;;20.40;81.10;;;;;;4995367;28;19968;-70
2021/06/25 10:53:10;;;;;;;;;;;20.40;81.20;;;;;;4994724;28;19925;-71
2021/06/25 10:55:44;;;;;;;;;;;20.30;81.70;;;;;;4994944;28;19924;-70
2021/06/25 10:58:10;;;;;;;;;;;20.30;82.00;;;;;;4994257;28;19938;-70
2021/06/25 11:00:39;;;;;;;;;;;20.40;82.20;;;;;;4994958;28;19973;-71
2021/06/25 11:03:05;;;;;;;;;;;20.50;81.30;;;;;;4995134;28;19923;-70
2021/06/25 11:05:31;;;;;;;;;;;20.50;81.00;;;;;;4993627;28;19923;-71
2021/06/25 11:07:57;;;;;;;;;;;20.70;81.10;;;;;;4994769;28;19929;-70
2021/06/25 11:10:26;;;;;;;;;;;20.80;81.30;;;;;;4993516;28;19942;-71
2021/06/25 11:13:10;;;;;;;;;;;20.90;80.30;;;;;;4994691;28;19929;-71
2021/06/25 11:15:36;;;;;;;;;;;20.90;80.30;;;;;;4994669;28;20353;-70
2021/06/25 11:18:02;;;;;;;;;;;21.00;80.50;;;;;;4994937;28;19987;-70
2021/06/25 11:20:32;;;;;;;;;;;20.90;80.50;;;;;;4993432;28;20053;-71
2021/06/25 11:22:58;;;;;;;;;;;20.90;80.70;;;;;;4994851;28;20018;-70
2021/06/25 11:25:33;;;;;;;;;;;20.80;81.70;;;;;;4995124;28;19927;-70
2021/06/25 11:28:08;;;;;;;;;;;20.90;80.80;;;;;;4994452;28;19925;-70
2021/06/25 11:30:53;;;;;;;;;;;21.00;80.60;;;;;;4994941;28;19945;-70
2021/06/25 11:33:30;;;;;;;;;;;21.10;80.70;;;;;;4994404;28;19928;-70
2021/06/25 11:35:56;;;;;;;;;;;21.20;79.60;;;;;;4994981;28;20332;-70
2021/06/25 11:38:40;;;;;;;;;;;21.20;79.20;;;;;;4993467;28;19933;-70
2021/06/25 11:41:11;;;;;;;;;;;21.20;79.10;;;;;;4994875;28;20021;-70
2021/06/25 11:43:36;;;;;;;;;;;21.20;79.20;;;;;;4994348;28;20331;-70
2021/06/25 11:46:03;;;;;;;;;;;21.30;79.40;;;;;;4994557;28;20014;-70
2021/06/25 11:48:32;;;;;;;;;;;21.60;78.70;;;;;;4994256;28;20434;-70
2021/06/25 11:50:59;;;;;;;;;;;21.90;77.80;;;;;;4992992;28;20009;-70
2021/06/25 11:53:24;;;;;;;;;;;21.90;76.90;;;;;;4993154;28;19923;-70
2021/06/25 11:55:53;;;;;;;;;;;21.80;77.30;;;;;;4994222;28;19936;-70
2021/06/25 11:58:20;;;;;;;;;;;21.90;77.40;;;;;;4994191;28;19931;-70
2021/06/25 12:00:45;;;;;;;;;;;21.90;76.80;;;;;;4993356;28;19936;-70
2021/06/25 12:03:11;;;;;;;;;;;21.80;77.10;;;;;;4992926;28;19928;-70
2021/06/25 12:05:39;;;;;;;;;;;21.80;75.90;;;;;;4997822;28;19928;-71
2021/06/25 12:08:15;;;;;;;;;;;21.70;76.50;;;;;;4997305;28;20431;-70
2021/06/25 12:10:41;;;;;;;;;;;21.60;77.10;;;;;;4998287;28;20024;-70
2021/06/25 12:13:07;;;;;;;;;;;21.50;78.60;;;;;;4997307;28;19923;-70
2021/06/25 12:15:34;;;;;;;;;;;21.40;77.90;;;;;;4996650;28;19956;-70
2021/06/25 12:17:59;;;;;;;;;;;21.40;77.60;;;;;;4996872;28;19960;-71
2021/06/25 12:20:25;;;;;;;;;;;21.30;78.90;;;;;;4998339;28;20274;-70
2021/06/25 12:22:58;;;;;;;;;;;21.30;79.00;;;;;;4996617;28;19932;-71
2021/06/25 12:25:41;;;;;;;;;;;21.20;79.90;;;;;;4996836;28;20323;-70
2021/06/25 12:28:17;;;;;;;;;;;21.10;80.60;;;;;;4997648;28;20505;-70
2021/06/25 12:30:46;;;;;;;;;;;21.10;80.80;;;;;;4996329;28;20036;-70
2021/06/25 12:33:12;;;;;;;;;;;21.20;81.00;;;;;;4997550;28;19920;-71
2021/06/25 12:35:38;;;;;;;;;;;21.30;80.60;;;;;;4997524;28;19951;-70
2021/06/25 12:38:08;;;;;;;;;;;21.30;80.60;;;;;;4997529;28;19939;-71
2021/06/25 12:40:36;;;;;;;;;;;21.30;79.80;;;;;;4996514;28;20451;-70
2021/06/25 12:43:02;;;;;;;;;;;21.40;80.30;;;;;;4997407;28;19972;-70
2021/06/25 12:45:35;;;;;;;;;;;21.50;80.10;;;;;;4997620;28;20341;-70
2021/06/25 12:48:01;;;;;;;;;;;21.40;79.10;;;;;;4996155;28;20340;-71
2021/06/25 12:50:26;;;;;;;;;;;21.40;79.40;;;;;;4996201;28;19944;-71
2021/06/25 12:52:52;;;;;;;;;;;21.30;80.20;;;;;;4996353;28;19926;-70
2021/06/25 12:55:18;;;;;;;;;;;21.20;80.30;;;;;;4997134;28;19923;-70
2021/06/25 12:57:43;;;;;;;;;;;21.10;80.70;;;;;;4995841;28;20428;-71
2021/06/25 13:00:09;;;;;;;;;;;21.10;81.50;;;;;;4997107;28;19927;-70
2021/06/25 13:02:35;;;;;;;;;;;21.10;80.90;;;;;;4996944;28;19927;-70
2021/06/25 13:05:00;;;;;;;;;;;21.20;80.40;;;;;;4997534;28;19923;-70
2021/06/25 13:07:26;;;;;;;;;;;21.00;80.30;;;;;;4996954;28;19922;-70
2021/06/25 13:09:52;;;;;;;;;;;21.00;80.30;;;;;;4996823;28;19965;-70
2021/06/25 13:12:19;;;;;;;;;;;20.90;80.30;;;;;;4995946;28;20278;-71
2021/06/25 13:14:45;;;;;;;;;;;20.90;80.60;;;;;;4995552;28;19923;-70
2021/06/25 13:17:11;;;;;;;;;;;20.90;80.40;;;;;;4994674;28;19924;-70
2021/06/25 13:19:55;;;;;;;;;;;20.90;81.30;;;;;;4996692;28;20343;-71
2021/06/25 13:22:39;;;;;;;;;;;20.80;80.80;;;;;;4996674;28;19924;-70
2021/06/25 13:25:23;;;;;;;;;;;20.80;81.60;;;;;;4996371;28;20095;-70
2021/06/25 13:27:50;;;;;;;;;;;20.90;83.00;;;;;;4996800;28;19951;-70
2021/06/25 13:30:25;;;;;;;;;;;20.90;81.70;;;;;;4995231;28;19945;-70
2021/06/25 13:32:57;;;;;;;;;;;20.90;81.50;;;;;;4996430;28;19923;-71
2021/06/25 13:35:42;;;;;;;;;;;20.80;81.80;;;;;;4995206;28;19924;-70
2021/06/25 13:38:15;;;;;;;;;;;20.70;81.90;;;;;;4995451;28;19921;-70
2021/06/25 13:40:50;;;;;;;;;;;20.50;83.00;;;;;;4996247;28;20058;-70
2021/06/25 13:43:17;;;;;;;;;;;20.50;82.80;;;;;;4995110;28;19990;-70
2021/06/25 13:45:43;;;;;;;;;;;20.50;84.10;;;;;;4995625;28;19925;-70
2021/06/25 13:48:15;;;;;;;;;;;20.60;83.30;;;;;;4996177;28;20314;-70
2021/06/25 13:51:00;;;;;;;;;;;20.80;82.60;;;;;;4995183;28;19951;-70
2021/06/25 13:53:44;;;;;;;;;;;20.90;83.00;;;;;;4996498;28;19923;-70
2021/06/25 13:56:11;;;;;;;;;;;21.10;83.00;;;;;;4996377;28;19943;-70
2021/06/25 13:58:55;;;;;;;;;;;21.10;82.40;;;;;;4994915;28;19924;-70
2021/06/25 14:01:28;;;;;;;;;;;21.20;82.90;;;;;;4996273;28;19932;-70
2021/06/25 14:03:53;;;;;;;;;;;21.10;82.90;;;;;;4996257;28;19930;-70
2021/06/25 14:06:19;;;;;;;;;;;21.10;83.40;;;;;;4996011;28;19933;-70
2021/06/25 14:08:45;;;;;;;;;;;20.90;83.30;;;;;;4995256;28;19923;-70
2021/06/25 14:11:11;;;;;;;;;;;20.80;83.00;;;;;;4994652;28;19989;-70
2021/06/25 14:13:37;;;;;;;;;;;20.70;83.30;;;;;;4995815;28;19931;-70
2021/06/25 14:16:21;;;;;;;;;;;20.60;83.10;;;;;;4994899;28;20327;-70
2021/06/25 14:18:48;;;;;;;;;;;20.50;83.70;;;;;;4995963;28;20008;-69
2021/06/25 14:21:14;;;;;;;;;;;20.50;84.20;;;;;;4996163;28;19924;-70
2021/06/25 14:23:40;;;;;;;;;;;20.50;84.40;;;;;;4994012;28;19964;-70
2021/06/25 14:26:06;;;;;;;;;;;20.50;84.00;;;;;;4995806;28;20015;-70
2021/06/25 14:28:32;;;;;;;;;;;20.60;84.60;;;;;;4995215;28;19927;-70
2021/06/25 14:30:58;;;;;;;;;;;20.60;84.30;;;;;;4994135;28;19971;-70